createdAt,value
2022-08-19T00:11:26.969Z,53.80
2022-08-19T00:26:27.186Z,43.00
2022-08-19T00:41:27.310Z,42.90
2022-08-19T00:56:27.804Z,42.60
2022-08-19T01:11:28.032Z,42.50
2022-08-19T01:26:28.426Z,42.40
2022-08-19T01:41:28.565Z,42.30
2022-08-19T01:56:29.042Z,42.40
2022-08-19T02:11:29.403Z,42.70
2022-08-19T02:26:32.130Z,43.00
2022-08-19T02:41:30.114Z,42.70
2022-08-19T02:56:30.322Z,42.70
2022-08-19T03:11:30.627Z,42.60
2022-08-19T03:26:30.999Z,42.60
2022-08-19T03:41:49.069Z,42.70
2022-08-19T03:56:31.592Z,42.50
2022-08-19T04:11:45.568Z,42.70
2022-08-19T04:26:32.198Z,42.80
2022-08-19T04:41:33.492Z,43.10
2022-08-19T04:56:32.822Z,43.10
2022-08-19T05:11:32.987Z,43.20
2022-08-19T05:26:33.373Z,43.20
2022-08-19T05:41:36.112Z,43.30
2022-08-19T05:56:34.028Z,43.10
2022-08-19T06:11:34.389Z,43.10
2022-08-19T06:26:34.898Z,42.70
2022-08-19T06:41:40.065Z,42.30
2022-08-19T06:56:35.359Z,42.40
2022-08-19T07:11:35.655Z,48.40
2022-08-19T07:26:37.810Z,42.60
2022-08-19T07:41:36.283Z,42.50
2022-08-19T07:56:38.172Z,42.70
2022-08-19T08:11:38.814Z,41.60
2022-08-19T08:26:52.394Z,41.90
2022-08-19T08:41:37.637Z,42.10
2022-08-19T08:56:37.997Z,42.20
2022-08-19T09:11:45.112Z,41.40
2022-08-19T09:26:53.596Z,40.90
2022-08-19T09:41:49.435Z,40.10
2022-08-19T09:56:42.749Z,40.00
2022-08-19T10:11:55.301Z,38.70
2022-08-19T10:26:39.816Z,39.10
2022-08-19T10:41:40.267Z,37.60
2022-08-19T10:56:40.405Z,36.90
2022-08-19T11:11:40.934Z,35.90
2022-08-19T11:26:42.565Z,35.20
2022-08-19T11:41:42.599Z,34.60
2022-08-19T11:56:41.770Z,33.20
2022-08-19T12:11:42.075Z,31.80
2022-08-19T12:26:55.199Z,31.80
2022-08-19T12:41:55.608Z,32.90
2022-08-19T12:56:42.983Z,33.30
2022-08-19T13:11:43.409Z,35.50
2022-08-19T13:41:44.222Z,36.70
2022-08-19T13:56:44.194Z,37.00
2022-08-19T14:11:44.582Z,37.10
2022-08-19T14:26:44.911Z,37.00
2022-08-19T14:41:45.363Z,37.20
2022-08-19T14:56:47.422Z,37.80
2022-08-19T15:11:45.776Z,38.50
2022-08-19T15:26:53.379Z,38.60
2022-08-19T15:41:46.464Z,38.30
2022-08-19T15:56:59.097Z,38.80
2022-08-19T16:12:02.814Z,38.70
2022-08-19T16:26:47.636Z,39.00
2022-08-19T16:41:47.747Z,39.00
2022-08-19T16:56:48.071Z,39.40
2022-08-19T17:11:50.002Z,40.10
2022-08-19T17:26:48.776Z,40.20
2022-08-19T17:41:51.085Z,40.00
2022-08-19T17:56:49.331Z,39.80
2022-08-19T18:11:54.110Z,43.10
2022-08-19T18:26:50.501Z,47.00
2022-08-19T18:41:50.336Z,52.80
2022-08-19T18:56:51.604Z,42.50
2022-08-19T19:11:50.945Z,42.40
2022-08-19T19:26:51.486Z,45.40
2022-08-19T19:41:51.758Z,42.90
2022-08-19T19:56:51.914Z,43.10
2022-08-19T20:11:54.496Z,42.80
2022-08-19T20:26:54.198Z,43.10
2022-08-19T20:41:54.703Z,43.10
2022-08-19T20:56:53.214Z,43.70
2022-08-19T21:11:53.614Z,44.50
2022-08-19T21:26:53.742Z,44.70
2022-08-19T21:41:54.242Z,45.60
2022-08-19T21:56:54.838Z,46.30
2022-08-19T22:11:58.081Z,47.10
2022-08-19T22:27:19.076Z,47.90
2022-08-19T22:42:14.819Z,51.70
2022-08-19T22:58:09.582Z,48.30
2022-08-19T23:13:06.277Z,47.90
2022-08-19T23:28:02.687Z,47.70
2022-08-19T23:43:10.278Z,48.00
2022-08-19T23:58:03.324Z,47.80
